createdAt,value
2022-12-11T00:00:35.816Z,99353.50
2022-12-11T00:01:28.721Z,99351.97
2022-12-11T00:02:15.930Z,99331.06
2022-12-11T00:03:15.378Z,99322.63
2022-12-11T00:04:09.711Z,99348.00
2022-12-11T00:05:03.801Z,99342.84
2022-12-11T00:05:59.700Z,99322.25
2022-12-11T00:06:56.696Z,99344.28
2022-12-11T00:07:37.725Z,99339.56
2022-12-11T00:08:18.820Z,99338.22
2022-12-11T00:09:00.725Z,99350.38
2022-12-11T00:09:40.777Z,99343.88
2022-12-11T00:10:20.730Z,99345.97
2022-12-11T00:11:00.802Z,99337.34
2022-12-11T00:11:41.724Z,99335.91
2022-12-11T00:12:22.775Z,99333.75
2022-12-11T00:13:02.771Z,99339.34
2022-12-11T00:13:42.803Z,99334.94
2022-12-11T00:14:22.699Z,99344.00
2022-12-11T00:15:02.762Z,99339.41
2022-12-11T00:15:44.721Z,99327.00
2022-12-11T00:16:27.154Z,99341.16
2022-12-11T00:17:08.855Z,99327.56
2022-12-11T00:17:48.774Z,99321.09
2022-12-11T00:18:29.737Z,99322.41
2022-12-11T00:19:09.767Z,99329.84
2022-12-11T00:19:49.699Z,99332.31
2022-12-11T00:20:29.771Z,99333.34
2022-12-11T00:21:13.713Z,99340.09
2022-12-11T00:22:07.742Z,99335.94
2022-12-11T00:23:01.734Z,99323.28
2022-12-11T00:23:49.706Z,99337.34
2022-12-11T00:24:23.738Z,99305.53
2022-12-11T00:25:11.919Z,99341.22
2022-12-11T00:25:53.838Z,99323.59
2022-12-11T00:26:41.708Z,99339.91
2022-12-11T00:27:15.800Z,99342.22
2022-12-11T00:28:02.768Z,99340.47
2022-12-11T00:28:36.829Z,99338.97
2022-12-11T00:29:20.733Z,99344.88
2022-12-11T00:30:00.758Z,99322.03
2022-12-11T00:30:40.714Z,99346.56
2022-12-11T00:31:24.877Z,99348.78
2022-12-11T00:32:04.706Z,99327.38
2022-12-11T00:32:44.788Z,99340.00
2022-12-11T00:33:24.671Z,99342.78
2022-12-11T00:34:04.808Z,99343.31
2022-12-11T00:34:44.704Z,99330.34
2022-12-11T00:35:25.739Z,99346.78
2022-12-11T00:36:06.724Z,99345.44
2022-12-11T00:36:46.738Z,99349.41
2022-12-11T00:37:26.758Z,99353.59
2022-12-11T00:38:06.728Z,99342.78
2022-12-11T00:38:46.675Z,99345.72
2022-12-11T00:39:26.832Z,99338.78
2022-12-11T00:40:10.709Z,99340.09
2022-12-11T00:40:52.047Z,99350.00
2022-12-11T00:41:32.684Z,99353.41
2022-12-11T00:42:15.553Z,99352.34
2022-12-11T00:42:56.679Z,99351.88
2022-12-11T00:43:36.787Z,99342.31
2022-12-11T00:44:17.689Z,99352.25
2022-12-11T00:44:58.737Z,99349.03
2022-12-11T00:45:46.741Z,99362.25
2022-12-11T00:46:26.710Z,99357.41
2022-12-11T00:47:06.656Z,99348.84
2022-12-11T00:47:46.792Z,99326.97
2022-12-11T00:48:26.693Z,99351.69
2022-12-11T00:49:06.740Z,99355.88
2022-12-11T00:49:50.018Z,99361.88
2022-12-11T00:50:30.749Z,99348.25
2022-12-11T00:51:11.688Z,99351.72
2022-12-11T00:51:51.724Z,99352.09
2022-12-11T00:52:31.684Z,99349.31
2022-12-11T00:53:13.872Z,99350.56
2022-12-11T00:53:54.658Z,99352.28
2022-12-11T00:54:34.812Z,99346.50
2022-12-11T00:55:14.741Z,99340.69
2022-12-11T00:55:54.791Z,99346.19
2022-12-11T00:56:34.869Z,99355.69
2022-12-11T00:57:14.815Z,99348.66
2022-12-11T00:57:57.696Z,99347.88
2022-12-11T00:58:38.684Z,99347.88
2022-12-11T00:59:19.663Z,99337.56
2022-12-11T00:59:59.882Z,99356.66
2022-12-11T01:00:40.664Z,99351.13
2022-12-11T01:01:27.785Z,99355.41
2022-12-11T01:02:08.745Z,99337.44
2022-12-11T01:02:49.786Z,99356.53
2022-12-11T01:03:29.793Z,99337.16
2022-12-11T01:04:09.734Z,99350.19
2022-12-11T01:04:49.689Z,99354.16
2022-12-11T01:05:29.785Z,99342.31
2022-12-11T01:06:10.646Z,99353.41
2022-12-11T01:06:50.716Z,99346.84
2022-12-11T01:07:31.665Z,99341.06
2022-12-11T01:08:12.873Z,99344.84
2022-12-11T01:08:53.650Z,99347.34
2022-12-11T01:09:52.387Z,99308.00
2022-12-11T01:10:33.710Z,99351.44
2022-12-11T01:11:17.732Z,99353.22
2022-12-11T01:11:59.633Z,99364.22
2022-12-11T01:12:46.682Z,99347.53
2022-12-11T01:13:40.702Z,99354.56
2022-12-11T01:14:34.647Z,99349.50
2022-12-11T01:15:29.656Z,99333.06
2022-12-11T01:16:29.728Z,99345.34
2022-12-11T01:17:23.633Z,99349.72
2022-12-11T01:18:11.683Z,99324.50
2022-12-11T01:18:46.755Z,99348.25
2022-12-11T01:19:33.656Z,99344.47
2022-12-11T01:20:07.736Z,99335.72
2022-12-11T01:20:55.641Z,99343.72
2022-12-11T01:21:29.926Z,99340.66
2022-12-11T01:22:16.667Z,99345.41
2022-12-11T01:22:50.710Z,99335.53
2022-12-11T01:23:31.649Z,99339.16
2022-12-11T01:24:12.700Z,99343.53
2022-12-11T01:24:53.620Z,99346.38
2022-12-11T01:25:35.680Z,99341.50
2022-12-11T01:26:19.643Z,99332.03
2022-12-11T01:26:59.663Z,99350.38
2022-12-11T01:27:40.673Z,99343.91
2022-12-11T01:28:20.664Z,99345.25
2022-12-11T01:29:00.663Z,99338.84
2022-12-11T01:29:41.755Z,99342.94
2022-12-11T01:30:21.656Z,99332.88
2022-12-11T01:31:01.699Z,99340.00
2022-12-11T01:31:41.631Z,99338.28
2022-12-11T01:32:21.663Z,99339.03
2022-12-11T01:33:01.642Z,99325.25
2022-12-11T01:33:41.707Z,99333.13
2022-12-11T01:34:23.631Z,99332.41
2022-12-11T01:35:03.691Z,99341.91
2022-12-11T01:35:46.658Z,99330.97
2022-12-11T01:36:28.672Z,99339.34
2022-12-11T01:37:08.655Z,99345.41
2022-12-11T01:37:49.701Z,99332.31
2022-12-11T01:38:30.604Z,99345.78
2022-12-11T01:39:10.766Z,99334.78
2022-12-11T01:39:50.752Z,99339.25
2022-12-11T01:40:30.733Z,99337.94
2022-12-11T01:41:11.636Z,99337.53
2022-12-11T01:41:51.675Z,99333.28
2022-12-11T01:42:32.613Z,99347.31
2022-12-11T01:43:12.662Z,99353.22
2022-12-11T01:44:12.617Z,99352.84
2022-12-11T01:44:59.643Z,99348.66
2022-12-11T01:45:56.651Z,99328.91
2022-12-11T01:46:50.654Z,99340.69
2022-12-11T01:47:44.623Z,99348.94
2022-12-11T01:48:44.622Z,99354.16
2022-12-11T01:49:40.591Z,99347.72
2022-12-11T01:50:21.627Z,99337.44
2022-12-11T01:51:10.684Z,99334.78
2022-12-11T01:52:05.608Z,99340.09
2022-12-11T01:52:46.652Z,99333.91
2022-12-11T01:53:33.604Z,99330.41
2022-12-11T01:54:17.683Z,99337.34
2022-12-11T01:54:58.632Z,99315.69
2022-12-11T01:55:39.612Z,99339.53
2022-12-11T01:56:13.628Z,99330.88
2022-12-11T01:57:05.626Z,99315.47
2022-12-11T01:57:39.692Z,99328.19
2022-12-11T01:58:28.626Z,99330.75
2022-12-11T01:59:07.280Z,99303.22
2022-12-11T01:59:55.765Z,99323.09
2022-12-11T02:00:29.711Z,99329.63
2022-12-11T02:01:10.655Z,99305.13
2022-12-11T02:02:00.641Z,99322.22
2022-12-11T02:02:41.636Z,99315.22
2022-12-11T02:03:21.731Z,99314.06
2022-12-11T02:04:02.610Z,99322.59
2022-12-11T02:04:45.663Z,99323.41
2022-12-11T02:05:26.586Z,99307.25
2022-12-11T02:06:08.706Z,99301.28
2022-12-11T02:06:58.601Z,99327.81
2022-12-11T02:07:53.684Z,99319.09
2022-12-11T02:08:33.596Z,99320.63
2022-12-11T02:09:18.657Z,99325.56
2022-12-11T02:09:58.588Z,99314.72
2022-12-11T02:11:07.697Z,99321.41
2022-12-11T02:11:55.607Z,99324.03
2022-12-11T02:13:14.622Z,99317.28
2022-12-11T02:14:40.657Z,99303.50
2022-12-11T02:15:43.605Z,99304.19
2022-12-11T02:16:45.728Z,99312.31
2022-12-11T02:17:42.584Z,99310.72
2022-12-11T02:19:02.641Z,99301.69
2022-12-11T02:20:23.784Z,99310.38
2022-12-11T02:21:20.621Z,99288.63
2022-12-11T02:21:56.120Z,99308.13
2022-12-11T02:23:12.593Z,99303.56
2022-12-11T02:24:13.585Z,99285.13
2022-12-11T02:25:39.703Z,99284.50
2022-12-11T02:26:45.621Z,99299.00
2022-12-11T02:27:58.857Z,99286.09
2022-12-11T02:28:50.609Z,99287.72
2022-12-11T02:30:35.586Z,99293.00
2022-12-11T02:31:35.086Z,99279.13
2022-12-11T02:32:32.601Z,99288.84
2022-12-11T02:33:07.674Z,99285.34
2022-12-11T02:34:12.571Z,99286.00
2022-12-11T02:35:13.491Z,99307.94
2022-12-11T02:36:01.578Z,99295.59
2022-12-11T02:36:40.624Z,99296.81
2022-12-11T02:37:35.557Z,99295.88
2022-12-11T02:38:41.576Z,99296.72
2022-12-11T02:39:29.586Z,99276.19
2022-12-11T02:40:07.832Z,99280.44
2022-12-11T02:40:57.558Z,99296.88
2022-12-11T02:41:39.556Z,99290.03
2022-12-11T02:42:20.578Z,99285.75
2022-12-11T02:43:03.545Z,99280.72
2022-12-11T02:43:45.647Z,99297.97
2022-12-11T02:44:33.546Z,99294.19
2022-12-11T02:45:15.606Z,99299.31
2022-12-11T02:45:57.681Z,99303.28
2022-12-11T02:46:46.561Z,99295.09
2022-12-11T02:47:20.704Z,99291.75
2022-12-11T02:48:10.534Z,99296.38
2022-12-11T02:48:44.544Z,99285.22
2022-12-11T02:49:33.556Z,99299.00
2022-12-11T02:50:12.631Z,99301.66
2022-12-11T02:51:01.545Z,99303.53
2022-12-11T02:51:44.338Z,99297.84
2022-12-11T02:52:27.576Z,99291.97
2022-12-11T02:53:02.723Z,99297.84
2022-12-11T02:53:39.127Z,99286.38
2022-12-11T02:54:35.561Z,99291.69
2022-12-11T02:55:10.815Z,99282.09
2022-12-11T02:55:45.819Z,99287.59
2022-12-11T02:56:40.550Z,99277.53
2022-12-11T02:57:52.571Z,99299.94
2022-12-11T02:58:32.678Z,99303.84
2022-12-11T02:59:29.544Z,99300.16
2022-12-11T03:00:05.037Z,99282.69
2022-12-11T03:00:51.572Z,99299.75
2022-12-11T03:01:26.489Z,99307.66
2022-12-11T03:03:15.529Z,99309.34
2022-12-11T03:03:55.665Z,99302.47
2022-12-11T03:04:37.528Z,99292.00
2022-12-11T03:05:19.615Z,99296.56
2022-12-11T03:06:00.521Z,99297.72
2022-12-11T03:06:49.576Z,99298.09
2022-12-11T03:07:36.548Z,99295.66
2022-12-11T03:08:24.572Z,99287.47
2022-12-11T03:08:59.261Z,99287.63
2022-12-11T03:09:46.507Z,99302.09
2022-12-11T03:10:20.994Z,99303.53
2022-12-11T03:11:07.539Z,99287.84
2022-12-11T03:11:41.290Z,99302.84
2022-12-11T03:12:43.564Z,99307.03
2022-12-11T03:13:21.345Z,99293.06
2022-12-11T03:14:02.788Z,99295.81
2022-12-11T03:14:36.582Z,99294.13
2022-12-11T03:15:16.012Z,99300.19
2022-12-11T03:16:31.501Z,99293.31
2022-12-11T03:17:34.752Z,99294.84
2022-12-11T03:18:17.671Z,99303.00
2022-12-11T03:19:10.601Z,99306.34
2022-12-11T03:19:51.151Z,99289.16
2022-12-11T03:20:44.618Z,99299.28
2022-12-11T03:22:01.520Z,99301.56
2022-12-11T03:22:58.653Z,99293.69
2022-12-11T03:23:44.698Z,99297.53
2022-12-11T03:24:52.531Z,99289.56
2022-12-11T03:25:32.569Z,99293.81
2022-12-11T03:26:11.828Z,99297.34
2022-12-11T03:27:04.515Z,99304.16
2022-12-11T03:28:09.572Z,99298.09
2022-12-11T03:29:01.047Z,99299.06
2022-12-11T03:29:46.476Z,99292.69
2022-12-11T03:30:31.583Z,99289.19
2022-12-11T03:31:11.518Z,99299.44
2022-12-11T03:32:19.508Z,99299.31
2022-12-11T03:33:11.985Z,99298.94
2022-12-11T03:34:02.528Z,99299.13
2022-12-11T03:34:58.341Z,99296.09
2022-12-11T03:35:54.524Z,99302.66
2022-12-11T03:36:34.053Z,99299.13
2022-12-11T03:37:22.513Z,99295.03
2022-12-11T03:37:57.925Z,99292.00
2022-12-11T03:38:51.485Z,99296.34
2022-12-11T03:39:30.919Z,99301.09
2022-12-11T03:40:23.504Z,99297.06
2022-12-11T03:41:07.507Z,99295.34
2022-12-11T03:41:48.576Z,99293.63
2022-12-11T03:42:30.472Z,99300.66
2022-12-11T03:43:12.604Z,99288.31
2022-12-11T03:43:53.498Z,99293.47
2022-12-11T03:44:34.722Z,99294.81
2022-12-11T03:45:16.485Z,99288.16
2022-12-11T03:45:57.633Z,99285.06
2022-12-11T03:46:42.496Z,99294.09
2022-12-11T03:47:27.568Z,99293.09
2022-12-11T03:48:09.477Z,99287.00
2022-12-11T03:48:51.591Z,99296.91
2022-12-11T03:49:36.476Z,99300.94
2022-12-11T03:50:18.530Z,99297.25
2022-12-11T03:50:59.483Z,99300.34
2022-12-11T03:51:42.280Z,99274.09
2022-12-11T03:52:23.495Z,99295.31
2022-12-11T03:53:04.666Z,99296.41
2022-12-11T03:53:45.475Z,99293.50
2022-12-11T03:54:26.746Z,99288.28
2022-12-11T03:55:10.628Z,99286.59
2022-12-11T03:55:51.566Z,99285.69
2022-12-11T03:56:34.476Z,99295.03
2022-12-11T03:57:16.676Z,99269.88
2022-12-11T03:57:56.508Z,99287.56
2022-12-11T03:58:37.600Z,99290.59
2022-12-11T03:59:18.462Z,99292.91
2022-12-11T03:59:59.575Z,99293.94
2022-12-11T04:00:39.502Z,99291.97
2022-12-11T04:01:20.532Z,99269.13
2022-12-11T04:02:00.546Z,99293.25
2022-12-11T04:02:41.612Z,99284.91
2022-12-11T04:03:24.556Z,99288.75
2022-12-11T04:04:04.534Z,99288.53
2022-12-11T04:04:45.450Z,99283.81
2022-12-11T04:05:25.564Z,99280.97
2022-12-11T04:06:06.486Z,99282.47
2022-12-11T04:06:46.569Z,99270.16
2022-12-11T04:07:26.455Z,99286.19
2022-12-11T04:08:06.715Z,99284.41
2022-12-11T04:08:46.524Z,99291.69
2022-12-11T04:09:26.539Z,99282.84
2022-12-11T04:10:07.468Z,99291.03
2022-12-11T04:10:48.538Z,99288.59
2022-12-11T04:11:43.479Z,99284.97
2022-12-11T04:12:24.468Z,99277.75
2022-12-11T04:13:04.444Z,99284.13
2022-12-11T04:14:13.460Z,99286.50
2022-12-11T04:15:02.208Z,99286.50
2022-12-11T04:15:51.546Z,99286.13
2022-12-11T04:16:25.121Z,99284.41
2022-12-11T04:17:13.490Z,99277.75
2022-12-11T04:18:05.837Z,99276.59
2022-12-11T04:19:10.445Z,99285.22
2022-12-11T04:20:09.507Z,99289.66
2022-12-11T04:21:09.177Z,99286.63
2022-12-11T04:22:08.467Z,99287.78
2022-12-11T04:23:06.821Z,99290.72
2022-12-11T04:24:06.449Z,99285.03
2022-12-11T04:24:46.466Z,99289.03
2022-12-11T04:25:26.455Z,99284.19
2022-12-11T04:26:24.508Z,99284.75
2022-12-11T04:27:04.411Z,99267.56
2022-12-11T04:27:51.604Z,99285.13
2022-12-11T04:28:39.457Z,99278.88
2022-12-11T04:29:13.519Z,99277.31
2022-12-11T04:30:01.433Z,99277.75
2022-12-11T04:30:42.467Z,99276.53
2022-12-11T04:31:37.448Z,99279.84
2022-12-11T04:32:31.409Z,99281.56
2022-12-11T04:33:25.420Z,99265.09
2022-12-11T04:34:19.417Z,99282.47
2022-12-11T04:35:13.635Z,99274.88
2022-12-11T04:36:00.434Z,99272.50
2022-12-11T04:36:34.489Z,99280.78
2022-12-11T04:37:21.407Z,99261.97
2022-12-11T04:37:55.583Z,99261.53
2022-12-11T04:38:42.403Z,99268.09
2022-12-11T04:39:16.484Z,99270.56
2022-12-11T04:40:03.415Z,99265.44
2022-12-11T04:40:37.550Z,99269.41
2022-12-11T04:41:25.421Z,99261.81
2022-12-11T04:41:59.469Z,99275.75
2022-12-11T04:42:46.417Z,99259.91
2022-12-11T04:43:20.738Z,99273.19
2022-12-11T04:44:07.407Z,99277.53
2022-12-11T04:44:41.449Z,99267.06
2022-12-11T04:45:28.408Z,99262.94
2022-12-11T04:46:14.507Z,99265.19
2022-12-11T04:46:54.420Z,99259.16
2022-12-11T04:47:34.467Z,99256.06
2022-12-11T04:48:15.409Z,99252.56
2022-12-11T04:48:58.099Z,99250.53
2022-12-11T04:49:38.400Z,99233.78
2022-12-11T04:50:20.555Z,99258.75
2022-12-11T04:51:00.397Z,99254.28
2022-12-11T04:51:40.516Z,99250.63
2022-12-11T04:52:20.407Z,99239.19
2022-12-11T04:53:03.451Z,99257.91
2022-12-11T04:53:44.370Z,99245.94
2022-12-11T04:54:24.799Z,99249.94
2022-12-11T04:55:04.412Z,99232.78
2022-12-11T04:55:46.418Z,99255.69
2022-12-11T04:56:27.399Z,99254.56
2022-12-11T04:57:07.457Z,99248.59
2022-12-11T04:57:48.409Z,99257.22
2022-12-11T04:58:29.433Z,99245.50
2022-12-11T04:59:09.395Z,99248.53
2022-12-11T04:59:49.454Z,99259.28
2022-12-11T05:00:29.371Z,99244.97
2022-12-11T05:01:17.491Z,99235.38
2022-12-11T05:01:58.407Z,99256.47
2022-12-11T05:02:36.938Z,99266.09
2022-12-11T05:03:18.399Z,99266.09
2022-12-11T05:03:52.419Z,99250.19
2022-12-11T05:04:26.439Z,99258.75
2022-12-11T05:05:06.402Z,99258.16
2022-12-11T05:05:40.426Z,99260.28
2022-12-11T05:06:14.367Z,99258.03
2022-12-11T05:06:57.360Z,99250.91
2022-12-11T05:07:31.540Z,99249.56
2022-12-11T05:08:05.540Z,99246.88
2022-12-11T05:08:48.430Z,99250.88
2022-12-11T05:09:22.430Z,99259.44
2022-12-11T05:09:56.122Z,99250.69
2022-12-11T05:10:36.368Z,99252.22
2022-12-11T05:11:13.436Z,99250.69
2022-12-11T05:11:48.031Z,99251.13
2022-12-11T05:12:28.372Z,99257.19
2022-12-11T05:13:02.394Z,99248.66
2022-12-11T05:13:36.342Z,99251.25
2022-12-11T05:14:16.399Z,99245.84
2022-12-11T05:14:50.468Z,99257.41
2022-12-11T05:15:24.221Z,99248.13
2022-12-11T05:16:05.414Z,99237.53
2022-12-11T05:16:39.407Z,99244.25
2022-12-11T05:17:13.444Z,99249.56
2022-12-11T05:17:53.368Z,99254.53
2022-12-11T05:18:27.408Z,99255.78
2022-12-11T05:19:01.226Z,99249.53
2022-12-11T05:19:41.379Z,99254.69
2022-12-11T05:20:15.383Z,99224.59
2022-12-11T05:21:00.357Z,99246.66
2022-12-11T05:21:41.369Z,99250.06
2022-12-11T05:22:15.427Z,99246.09
2022-12-11T05:22:49.030Z,99248.50
2022-12-11T05:23:30.351Z,99241.50
2022-12-11T05:24:04.403Z,99238.59
2022-12-11T05:24:38.051Z,99243.06
2022-12-11T05:25:18.408Z,99238.75
2022-12-11T05:26:02.401Z,99247.66
2022-12-11T05:26:37.051Z,99241.88
2022-12-11T05:27:17.363Z,99238.63
2022-12-11T05:27:51.413Z,99250.78
2022-12-11T05:28:27.591Z,99251.88
2022-12-11T05:29:07.339Z,99249.22
2022-12-11T05:29:42.077Z,99243.41
2022-12-11T05:30:16.184Z,99229.63
2022-12-11T05:31:03.447Z,99229.34
2022-12-11T05:31:37.499Z,99248.72
2022-12-11T05:32:11.082Z,99247.34
2022-12-11T05:32:51.345Z,99251.88
2022-12-11T05:33:25.557Z,99228.84
2022-12-11T05:33:59.082Z,99239.59
2022-12-11T05:34:40.347Z,99253.53
2022-12-11T05:35:14.468Z,99238.13
2022-12-11T05:35:49.016Z,99241.81
2022-12-11T05:36:37.374Z,99250.34
2022-12-11T05:37:11.416Z,99248.03
2022-12-11T05:37:45.011Z,99262.41
2022-12-11T05:38:26.432Z,99229.91
2022-12-11T05:39:00.759Z,99242.06
2022-12-11T05:39:35.012Z,99235.91
2022-12-11T05:40:19.424Z,99251.38
2022-12-11T05:41:03.380Z,99247.03
2022-12-11T05:41:44.368Z,99250.63
2022-12-11T05:42:28.785Z,99254.91
2022-12-11T05:43:09.344Z,99256.78
2022-12-11T05:43:49.411Z,99254.19
2022-12-11T05:44:30.338Z,99252.59
2022-12-11T05:45:11.645Z,99239.66
2022-12-11T05:45:52.313Z,99245.38
2022-12-11T05:46:35.649Z,99254.72
2022-12-11T05:47:15.372Z,99230.31
2022-12-11T05:47:55.430Z,99252.94
2022-12-11T05:48:35.347Z,99249.09
2022-12-11T05:49:19.870Z,99237.28
2022-12-11T05:50:00.329Z,99252.50
2022-12-11T05:50:40.370Z,99251.47
2022-12-11T05:51:21.322Z,99252.34
2022-12-11T05:52:01.357Z,99242.41
2022-12-11T05:52:41.350Z,99259.09
2022-12-11T05:53:21.449Z,99250.34
2022-12-11T05:54:04.334Z,99241.03
2022-12-11T05:54:44.431Z,99244.28
2022-12-11T05:55:24.342Z,99244.78
2022-12-11T05:56:13.437Z,99252.13
2022-12-11T05:56:53.309Z,99253.09
2022-12-11T05:57:33.385Z,99247.53
2022-12-11T05:58:14.326Z,99249.59
2022-12-11T05:58:55.363Z,99250.09
2022-12-11T05:59:35.312Z,99238.63
2022-12-11T06:00:18.430Z,99256.78
2022-12-11T06:00:58.327Z,99248.38
2022-12-11T06:01:45.419Z,99256.25
2022-12-11T06:02:26.455Z,99256.84
2022-12-11T06:03:06.501Z,99250.34
2022-12-11T06:03:47.327Z,99250.63
2022-12-11T06:04:27.362Z,99251.72
2022-12-11T06:05:07.326Z,99250.63
2022-12-11T06:05:49.382Z,99250.63
2022-12-11T06:06:30.326Z,99260.19
2022-12-11T06:07:11.374Z,99248.28
2022-12-11T06:07:51.354Z,99233.00
2022-12-11T06:08:31.348Z,99247.44
2022-12-11T06:09:12.325Z,99261.84
2022-12-11T06:09:52.342Z,99250.44
2022-12-11T06:10:32.301Z,99235.72
2022-12-11T06:11:14.125Z,99245.91
2022-12-11T06:11:54.295Z,99255.94
2022-12-11T06:12:34.350Z,99257.53
2022-12-11T06:13:14.295Z,99260.69
2022-12-11T06:13:55.348Z,99263.28
2022-12-11T06:14:35.335Z,99255.75
2022-12-11T06:15:16.342Z,99238.13
2022-12-11T06:15:56.312Z,99260.53
2022-12-11T06:16:37.386Z,99254.81
2022-12-11T06:17:17.302Z,99259.69
2022-12-11T06:17:57.329Z,99256.19
2022-12-11T06:18:38.281Z,99265.09
2022-12-11T06:19:22.572Z,99255.66
2022-12-11T06:20:02.325Z,99259.84
2022-12-11T06:20:43.358Z,99262.09
2022-12-11T06:21:31.291Z,99252.94
2022-12-11T06:22:12.509Z,99248.06
2022-12-11T06:22:52.298Z,99262.59
2022-12-11T06:23:32.345Z,99246.16
2022-12-11T06:24:13.297Z,99252.28
2022-12-11T06:24:53.329Z,99241.38
2022-12-11T06:25:34.342Z,99264.50
2022-12-11T06:26:16.488Z,99234.00
2022-12-11T06:26:56.295Z,99261.41
2022-12-11T06:27:36.344Z,99256.19
2022-12-11T06:28:16.288Z,99252.50
2022-12-11T06:28:57.396Z,99249.63
2022-12-11T06:29:38.277Z,99253.78
2022-12-11T06:30:19.334Z,99254.03
2022-12-11T06:30:59.359Z,99260.91
2022-12-11T06:31:39.475Z,99259.34
2022-12-11T06:32:19.303Z,99255.94
2022-12-11T06:32:59.366Z,99261.91
2022-12-11T06:33:39.300Z,99257.38
2022-12-11T06:34:20.319Z,99256.78
2022-12-11T06:35:00.270Z,99260.53
2022-12-11T06:35:42.482Z,99259.53
2022-12-11T06:36:28.309Z,99259.88
2022-12-11T06:37:08.336Z,99249.69
2022-12-11T06:37:48.273Z,99260.63
2022-12-11T06:38:28.417Z,99259.19
2022-12-11T06:39:09.288Z,99251.13
2022-12-11T06:39:49.324Z,99257.47
2022-12-11T06:40:29.273Z,99262.59
2022-12-11T06:41:11.361Z,99247.63
2022-12-11T06:41:51.304Z,99264.31
2022-12-11T06:42:31.473Z,99261.50
2022-12-11T06:43:11.255Z,99243.28
2022-12-11T06:43:52.406Z,99259.16
2022-12-11T06:44:32.252Z,99240.69
2022-12-11T06:45:13.537Z,99263.84
2022-12-11T06:45:57.923Z,99249.97
2022-12-11T06:46:40.316Z,99262.28
2022-12-11T06:47:20.286Z,99268.00
2022-12-11T06:48:01.314Z,99244.53
2022-12-11T06:48:41.261Z,99265.69
2022-12-11T06:49:21.699Z,99251.47
2022-12-11T06:50:03.258Z,99262.09
2022-12-11T06:50:45.283Z,99265.84
2022-12-11T06:51:29.253Z,99262.25
2022-12-11T06:52:13.740Z,99259.09
2022-12-11T06:52:58.291Z,99273.53
2022-12-11T06:53:38.364Z,99268.91
2022-12-11T06:54:18.255Z,99271.66
2022-12-11T06:54:58.374Z,99266.69
2022-12-11T06:55:42.249Z,99273.47
2022-12-11T06:56:22.454Z,99262.25
2022-12-11T06:57:03.260Z,99274.31
2022-12-11T06:57:43.376Z,99278.00
2022-12-11T06:58:23.278Z,99271.66
2022-12-11T06:59:07.254Z,99278.25
2022-12-11T06:59:48.267Z,99255.41
2022-12-11T07:00:28.317Z,99279.00
2022-12-11T07:01:09.303Z,99269.59
2022-12-11T07:01:50.374Z,99265.84
2022-12-11T07:02:30.342Z,99290.31
2022-12-11T07:03:11.698Z,99273.38
2022-12-11T07:03:53.267Z,99277.81
2022-12-11T07:04:34.656Z,99281.66
2022-12-11T07:05:15.273Z,99260.91
2022-12-11T07:05:55.635Z,99269.97
2022-12-11T07:06:37.256Z,99271.56
2022-12-11T07:07:19.755Z,99268.25
2022-12-11T07:08:03.340Z,99269.97
2022-12-11T07:08:43.593Z,99262.94
2022-12-11T07:09:25.278Z,99270.66
2022-12-11T07:10:08.424Z,99265.69
2022-12-11T07:10:49.238Z,99259.25
2022-12-11T07:11:30.721Z,99275.63
2022-12-11T07:12:12.247Z,99275.63
2022-12-11T07:12:52.266Z,99272.25
2022-12-11T07:13:32.239Z,99269.44
2022-12-11T07:14:12.324Z,99277.06
2022-12-11T07:14:52.251Z,99275.88
2022-12-11T07:15:36.440Z,99259.09
2022-12-11T07:16:23.243Z,99266.16
2022-12-11T07:17:04.328Z,99265.50
2022-12-11T07:17:44.216Z,99257.19
2022-12-11T07:18:24.405Z,99274.31
2022-12-11T07:19:04.227Z,99273.72
2022-12-11T07:19:45.521Z,99269.44
2022-12-11T07:20:25.244Z,99268.59
2022-12-11T07:21:06.290Z,99279.53
2022-12-11T07:21:46.224Z,99272.16
2022-12-11T07:22:26.331Z,99276.38
2022-12-11T07:23:13.220Z,99263.34
2022-12-11T07:23:47.301Z,99264.06
2022-12-11T07:24:34.237Z,99263.28
2022-12-11T07:25:08.679Z,99266.44
2022-12-11T07:25:49.285Z,99273.56
2022-12-11T07:26:30.345Z,99275.75
2022-12-11T07:27:11.236Z,99267.28
2022-12-11T07:27:51.286Z,99261.75
2022-12-11T07:28:32.209Z,99255.59
2022-12-11T07:29:12.286Z,99276.13
2022-12-11T07:29:52.204Z,99261.66
2022-12-11T07:30:32.238Z,99265.16
2022-12-11T07:31:19.328Z,99270.97
2022-12-11T07:31:59.369Z,99257.63
2022-12-11T07:32:39.268Z,99258.84
2022-12-11T07:33:19.267Z,99256.25
2022-12-11T07:34:06.208Z,99257.38
2022-12-11T07:34:51.547Z,99256.03
2022-12-11T07:35:32.195Z,99263.53
2022-12-11T07:36:14.250Z,99256.59
2022-12-11T07:36:54.227Z,99263.28
2022-12-11T07:37:34.268Z,99266.59
2022-12-11T07:38:15.219Z,99253.19
2022-12-11T07:38:55.375Z,99261.16
2022-12-11T07:39:35.225Z,99268.00
2022-12-11T07:40:16.351Z,99248.88
2022-12-11T07:40:56.207Z,99249.50
2022-12-11T07:41:36.334Z,99254.44
2022-12-11T07:42:17.228Z,99245.97
2022-12-11T07:42:57.312Z,99255.03
2022-12-11T07:43:38.195Z,99262.16
2022-12-11T07:44:18.283Z,99262.06
2022-12-11T07:44:58.207Z,99263.69
2022-12-11T07:45:38.424Z,99251.38
2022-12-11T07:46:25.206Z,99253.81
2022-12-11T07:47:05.524Z,99253.41
2022-12-11T07:47:45.234Z,99253.66
2022-12-11T07:48:25.251Z,99256.63
2022-12-11T07:49:07.189Z,99250.47
2022-12-11T07:49:47.244Z,99266.59
2022-12-11T07:50:27.273Z,99264.53
2022-12-11T07:51:28.326Z,99258.06
2022-12-11T07:52:09.199Z,99257.44
2022-12-11T07:52:56.222Z,99259.81
2022-12-11T07:53:50.202Z,99256.84
2022-12-11T07:54:44.212Z,99264.53
2022-12-11T07:55:39.197Z,99265.41
2022-12-11T07:56:33.205Z,99268.53
2022-12-11T07:57:27.196Z,99262.03
2022-12-11T07:58:14.396Z,99261.88
2022-12-11T07:58:48.263Z,99250.75
2022-12-11T07:59:35.194Z,99263.97
2022-12-11T08:00:11.870Z,99259.59
2022-12-11T08:01:00.222Z,99265.59
2022-12-11T08:01:36.585Z,99275.19
2022-12-11T08:02:23.295Z,99261.31
2022-12-11T08:02:57.213Z,99270.72
2022-12-11T08:03:37.217Z,99265.03
2022-12-11T08:04:18.259Z,99274.41
2022-12-11T08:04:58.235Z,99257.78
2022-12-11T08:05:38.279Z,99269.78
2022-12-11T08:06:19.190Z,99273.97
2022-12-11T08:06:59.303Z,99268.41
2022-12-11T08:07:42.193Z,99270.72
2022-12-11T08:08:23.360Z,99269.59
2022-12-11T08:09:06.181Z,99270.47
2022-12-11T08:09:46.215Z,99272.88
2022-12-11T08:10:26.269Z,99273.91
2022-12-11T08:11:11.343Z,99271.06
2022-12-11T08:11:52.181Z,99276.97
2022-12-11T08:12:32.305Z,99274.16
2022-12-11T08:13:13.160Z,99268.09
2022-12-11T08:13:53.212Z,99275.94
2022-12-11T08:14:33.207Z,99264.97
2022-12-11T08:15:14.283Z,99273.56
2022-12-11T08:15:55.171Z,99272.50
2022-12-11T08:16:38.089Z,99274.91
2022-12-11T08:17:20.643Z,99273.06
2022-12-11T08:18:02.422Z,99277.66
2022-12-11T08:18:44.193Z,99274.50
2022-12-11T08:19:24.227Z,99274.91
2022-12-11T08:20:04.196Z,99275.88
2022-12-11T08:20:45.278Z,99279.00
2022-12-11T08:21:32.164Z,99260.22
2022-12-11T08:22:13.213Z,99275.34
2022-12-11T08:22:58.818Z,99274.59
2022-12-11T08:23:53.161Z,99273.19
2022-12-11T08:24:47.169Z,99271.59
2022-12-11T08:25:28.191Z,99269.19
2022-12-11T08:26:13.516Z,99265.69
2022-12-11T08:26:55.165Z,99267.31
2022-12-11T08:27:35.522Z,99276.22
2022-12-11T08:28:15.140Z,99276.97
2022-12-11T08:28:55.193Z,99258.06
2022-12-11T08:29:37.224Z,99268.34
2022-12-11T08:30:18.202Z,99273.06